sensor_id;sensor_type;location;lat;lon;timestamp;P1;durP1;ratioP1;P2;durP2;ratioP2
10134;SDS011;5107;48.850;8.924;2023-06-22T00:00:50;10.93;;;9.55;;
10134;SDS011;5107;48.850;8.924;2023-06-22T00:03:20;12.80;;;8.32;;
10134;SDS011;5107;48.850;8.924;2023-06-22T00:05:46;9.30;;;8.27;;
10134;SDS011;5107;48.850;8.924;2023-06-22T00:08:12;10.20;;;8.75;;
10134;SDS011;5107;48.850;8.924;2023-06-22T00:10:37;12.45;;;8.90;;
10134;SDS011;5107;48.850;8.924;2023-06-22T00:13:03;9.50;;;8.60;;
10134;SDS011;5107;48.850;8.924;2023-06-22T00:15:29;9.15;;;8.27;;
10134;SDS011;5107;48.850;8.924;2023-06-22T00:17:55;9.93;;;8.85;;
10134;SDS011;5107;48.850;8.924;2023-06-22T00:20:22;9.50;;;8.60;;
10134;SDS011;5107;48.850;8.924;2023-06-22T00:22:47;10.43;;;9.10;;
10134;SDS011;5107;48.850;8.924;2023-06-22T00:25:13;9.95;;;8.93;;
10134;SDS011;5107;48.850;8.924;2023-06-22T00:27:38;10.40;;;8.88;;
10134;SDS011;5107;48.850;8.924;2023-06-22T00:30:04;11.27;;;8.60;;
10134;SDS011;5107;48.850;8.924;2023-06-22T00:32:29;12.00;;;9.30;;
10134;SDS011;5107;48.850;8.924;2023-06-22T00:34:55;10.38;;;9.27;;
10134;SDS011;5107;48.850;8.924;2023-06-22T00:37:20;12.70;;;8.90;;
10134;SDS011;5107;48.850;8.924;2023-06-22T00:39:50;10.15;;;8.98;;
10134;SDS011;5107;48.850;8.924;2023-06-22T00:42:16;10.25;;;9.15;;
10134;SDS011;5107;48.850;8.924;2023-06-22T00:44:42;11.00;;;10.00;;
10134;SDS011;5107;48.850;8.924;2023-06-22T00:47:08;11.93;;;10.18;;
10134;SDS011;5107;48.850;8.924;2023-06-22T00:49:34;15.13;;;10.85;;
10134;SDS011;5107;48.850;8.924;2023-06-22T00:52:00;11.32;;;10.27;;
10134;SDS011;5107;48.850;8.924;2023-06-22T00:54:25;12.15;;;10.88;;
10134;SDS011;5107;48.850;8.924;2023-06-22T00:56:52;12.35;;;10.93;;
10134;SDS011;5107;48.850;8.924;2023-06-22T00:59:21;12.48;;;10.85;;
10134;SDS011;5107;48.850;8.924;2023-06-22T01:01:46;12.95;;;10.82;;
10134;SDS011;5107;48.850;8.924;2023-06-22T01:04:12;12.00;;;10.80;;
10134;SDS011;5107;48.850;8.924;2023-06-22T01:06:45;11.00;;;9.85;;
10134;SDS011;5107;48.850;8.924;2023-06-22T01:09:33;11.10;;;10.00;;
10134;SDS011;5107;48.850;8.924;2023-06-22T01:12:04;11.45;;;9.98;;
10134;SDS011;5107;48.850;8.924;2023-06-22T01:14:38;12.00;;;10.82;;
10134;SDS011;5107;48.850;8.924;2023-06-22T01:17:08;11.93;;;9.63;;
10134;SDS011;5107;48.850;8.924;2023-06-22T01:19:48;13.23;;;10.23;;
10134;SDS011;5107;48.850;8.924;2023-06-22T01:22:20;12.23;;;10.80;;
10134;SDS011;5107;48.850;8.924;2023-06-22T01:24:57;12.48;;;10.60;;
10134;SDS011;5107;48.850;8.924;2023-06-22T01:30:02;11.98;;;9.93;;
10134;SDS011;5107;48.850;8.924;2023-06-22T01:32:31;11.95;;;10.30;;
10134;SDS011;5107;48.850;8.924;2023-06-22T01:35:00;11.85;;;9.85;;
10134;SDS011;5107;48.850;8.924;2023-06-22T01:37:27;13.32;;;11.05;;
10134;SDS011;5107;48.850;8.924;2023-06-22T01:39:57;13.45;;;10.18;;
10134;SDS011;5107;48.850;8.924;2023-06-22T01:42:23;14.65;;;10.98;;
10134;SDS011;5107;48.850;8.924;2023-06-22T01:44:50;11.35;;;10.23;;
10134;SDS011;5107;48.850;8.924;2023-06-22T01:47:17;13.02;;;9.88;;
10134;SDS011;5107;48.850;8.924;2023-06-22T01:49:42;13.68;;;9.98;;
10134;SDS011;5107;48.850;8.924;2023-06-22T01:52:08;11.43;;;9.65;;
10134;SDS011;5107;48.850;8.924;2023-06-22T01:54:34;12.32;;;9.70;;
10134;SDS011;5107;48.850;8.924;2023-06-22T01:56:59;13.80;;;10.05;;
10134;SDS011;5107;48.850;8.924;2023-06-22T02:02:09;10.45;;;9.30;;
10134;SDS011;5107;48.850;8.924;2023-06-22T02:05:18;10.70;;;9.57;;
10134;SDS011;5107;48.850;8.924;2023-06-22T02:07:36;11.15;;;9.90;;
10134;SDS011;5107;48.850;8.924;2023-06-22T02:10:09;11.43;;;9.48;;
10134;SDS011;5107;48.850;8.924;2023-06-22T02:12:38;11.98;;;9.50;;
10134;SDS011;5107;48.850;8.924;2023-06-22T02:15:06;10.68;;;9.55;;
10134;SDS011;5107;48.850;8.924;2023-06-22T02:17:33;10.43;;;9.20;;
10134;SDS011;5107;48.850;8.924;2023-06-22T02:19:58;10.38;;;9.15;;
10134;SDS011;5107;48.850;8.924;2023-06-22T02:22:24;11.40;;;10.20;;
10134;SDS011;5107;48.850;8.924;2023-06-22T02:24:49;12.00;;;10.80;;
10134;SDS011;5107;48.850;8.924;2023-06-22T02:27:15;11.05;;;9.95;;
10134;SDS011;5107;48.850;8.924;2023-06-22T02:29:40;12.20;;;10.77;;
10134;SDS011;5107;48.850;8.924;2023-06-22T02:32:05;11.48;;;10.05;;
10134;SDS011;5107;48.850;8.924;2023-06-22T02:34:31;10.80;;;9.70;;
10134;SDS011;5107;48.850;8.924;2023-06-22T02:36:59;10.60;;;9.35;;
10134;SDS011;5107;48.850;8.924;2023-06-22T02:39:26;13.57;;;10.70;;
10134;SDS011;5107;48.850;8.924;2023-06-22T02:41:52;15.02;;;11.10;;
10134;SDS011;5107;48.850;8.924;2023-06-22T02:44:18;13.05;;;10.38;;
10134;SDS011;5107;48.850;8.924;2023-06-22T02:46:44;11.90;;;10.10;;
10134;SDS011;5107;48.850;8.924;2023-06-22T02:49:10;11.75;;;10.30;;
10134;SDS011;5107;48.850;8.924;2023-06-22T02:51:37;13.45;;;11.27;;
10134;SDS011;5107;48.850;8.924;2023-06-22T02:54:04;13.02;;;11.25;;
10134;SDS011;5107;48.850;8.924;2023-06-22T02:56:30;11.90;;;10.52;;
10134;SDS011;5107;48.850;8.924;2023-06-22T02:58:55;11.53;;;9.77;;
10134;SDS011;5107;48.850;8.924;2023-06-22T03:01:29;11.40;;;10.00;;
10134;SDS011;5107;48.850;8.924;2023-06-22T03:03:56;12.73;;;9.55;;
10134;SDS011;5107;48.850;8.924;2023-06-22T03:06:21;11.10;;;10.00;;
10134;SDS011;5107;48.850;8.924;2023-06-22T03:08:48;10.80;;;9.67;;
10134;SDS011;5107;48.850;8.924;2023-06-22T03:11:13;12.00;;;10.63;;
10134;SDS011;5107;48.850;8.924;2023-06-22T03:13:38;12.50;;;10.02;;
10134;SDS011;5107;48.850;8.924;2023-06-22T03:16:04;11.32;;;10.13;;
10134;SDS011;5107;48.850;8.924;2023-06-22T03:18:29;10.93;;;9.70;;
10134;SDS011;5107;48.850;8.924;2023-06-22T03:20:54;11.15;;;9.88;;
10134;SDS011;5107;48.850;8.924;2023-06-22T03:23:20;11.48;;;9.85;;
10134;SDS011;5107;48.850;8.924;2023-06-22T03:25:45;12.18;;;10.82;;
10134;SDS011;5107;48.850;8.924;2023-06-22T03:28:10;11.38;;;10.15;;
10134;SDS011;5107;48.850;8.924;2023-06-22T03:30:36;11.25;;;9.57;;
10134;SDS011;5107;48.850;8.924;2023-06-22T03:33:01;11.02;;;9.85;;
10134;SDS011;5107;48.850;8.924;2023-06-22T03:35:27;11.43;;;9.90;;
10134;SDS011;5107;48.850;8.924;2023-06-22T03:37:52;14.68;;;10.63;;
10134;SDS011;5107;48.850;8.924;2023-06-22T03:40:17;11.02;;;9.93;;
10134;SDS011;5107;48.850;8.924;2023-06-22T03:42:43;10.98;;;9.60;;
10134;SDS011;5107;48.850;8.924;2023-06-22T03:45:08;12.37;;;9.90;;
10134;SDS011;5107;48.850;8.924;2023-06-22T03:47:34;11.63;;;10.43;;
10134;SDS011;5107;48.850;8.924;2023-06-22T03:49:59;10.32;;;9.32;;
10134;SDS011;5107;48.850;8.924;2023-06-22T03:52:25;13.40;;;9.73;;
10134;SDS011;5107;48.850;8.924;2023-06-22T03:54:50;10.05;;;9.15;;
10134;SDS011;5107;48.850;8.924;2023-06-22T03:57:16;11.05;;;9.95;;
10134;SDS011;5107;48.850;8.924;2023-06-22T03:59:41;11.02;;;9.60;;
10134;SDS011;5107;48.850;8.924;2023-06-22T04:02:06;10.07;;;9.07;;
10134;SDS011;5107;48.850;8.924;2023-06-22T04:04:32;10.57;;;9.38;;
10134;SDS011;5107;48.850;8.924;2023-06-22T04:06:58;11.88;;;10.10;;
10134;SDS011;5107;48.850;8.924;2023-06-22T04:09:24;13.70;;;9.73;;
10134;SDS011;5107;48.850;8.924;2023-06-22T04:11:49;12.05;;;9.90;;
10134;SDS011;5107;48.850;8.924;2023-06-22T04:14:14;10.30;;;8.52;;
10134;SDS011;5107;48.850;8.924;2023-06-22T04:16:40;12.55;;;9.68;;
10134;SDS011;5107;48.850;8.924;2023-06-22T04:19:05;9.52;;;8.60;;
10134;SDS011;5107;48.850;8.924;2023-06-22T04:21:30;9.90;;;8.40;;
10134;SDS011;5107;48.850;8.924;2023-06-22T04:23:56;9.57;;;8.60;;
10134;SDS011;5107;48.850;8.924;2023-06-22T04:26:21;9.38;;;7.70;;
10134;SDS011;5107;48.850;8.924;2023-06-22T04:28:47;9.73;;;8.73;;
10134;SDS011;5107;48.850;8.924;2023-06-22T04:31:20;9.45;;;8.55;;
10134;SDS011;5107;48.850;8.924;2023-06-22T04:33:46;9.70;;;8.80;;
10134;SDS011;5107;48.850;8.924;2023-06-22T04:36:11;10.10;;;8.43;;
10134;SDS011;5107;48.850;8.924;2023-06-22T04:38:39;10.02;;;8.95;;
10134;SDS011;5107;48.850;8.924;2023-06-22T04:41:05;9.85;;;8.90;;
10134;SDS011;5107;48.850;8.924;2023-06-22T04:43:31;9.77;;;8.70;;
10134;SDS011;5107;48.850;8.924;2023-06-22T04:45:57;9.98;;;8.98;;
10134;SDS011;5107;48.850;8.924;2023-06-22T04:48:31;11.05;;;9.48;;
10134;SDS011;5107;48.850;8.924;2023-06-22T04:51:00;10.23;;;9.32;;
10134;SDS011;5107;48.850;8.924;2023-06-22T04:53:29;10.93;;;9.77;;
10134;SDS011;5107;48.850;8.924;2023-06-22T04:55:55;10.48;;;9.48;;
10134;SDS011;5107;48.850;8.924;2023-06-22T04:58:20;11.15;;;9.75;;
10134;SDS011;5107;48.850;8.924;2023-06-22T05:00:46;10.95;;;9.73;;
10134;SDS011;5107;48.850;8.924;2023-06-22T05:03:12;11.68;;;10.25;;
10134;SDS011;5107;48.850;8.924;2023-06-22T05:05:37;13.20;;;9.48;;
10134;SDS011;5107;48.850;8.924;2023-06-22T05:08:03;13.82;;;10.25;;
10134;SDS011;5107;48.850;8.924;2023-06-22T05:10:31;10.88;;;9.70;;
10134;SDS011;5107;48.850;8.924;2023-06-22T05:12:57;10.48;;;9.20;;
10134;SDS011;5107;48.850;8.924;2023-06-22T05:15:23;10.90;;;9.57;;
10134;SDS011;5107;48.850;8.924;2023-06-22T05:17:51;10.05;;;9.05;;
10134;SDS011;5107;48.850;8.924;2023-06-22T05:20:17;11.13;;;9.30;;
10134;SDS011;5107;48.850;8.924;2023-06-22T05:22:43;11.45;;;9.35;;
10134;SDS011;5107;48.850;8.924;2023-06-22T05:25:08;10.07;;;8.88;;
10134;SDS011;5107;48.850;8.924;2023-06-22T05:27:35;10.75;;;9.65;;
10134;SDS011;5107;48.850;8.924;2023-06-22T05:30:09;11.23;;;9.32;;
10134;SDS011;5107;48.850;8.924;2023-06-22T05:32:35;10.48;;;9.32;;
10134;SDS011;5107;48.850;8.924;2023-06-22T05:35:02;13.00;;;9.80;;
10134;SDS011;5107;48.850;8.924;2023-06-22T05:37:28;11.73;;;9.43;;
10134;SDS011;5107;48.850;8.924;2023-06-22T05:39:54;10.18;;;9.15;;
10134;SDS011;5107;48.850;8.924;2023-06-22T05:42:20;10.18;;;9.10;;
10134;SDS011;5107;48.850;8.924;2023-06-22T05:44:46;12.35;;;9.32;;
10134;SDS011;5107;48.850;8.924;2023-06-22T05:47:12;12.05;;;9.88;;
10134;SDS011;5107;48.850;8.924;2023-06-22T05:49:37;12.18;;;9.95;;
10134;SDS011;5107;48.850;8.924;2023-06-22T05:52:03;11.15;;;9.65;;
10134;SDS011;5107;48.850;8.924;2023-06-22T05:54:28;11.38;;;9.50;;
10134;SDS011;5107;48.850;8.924;2023-06-22T05:56:54;12.50;;;10.25;;
10134;SDS011;5107;48.850;8.924;2023-06-22T05:59:19;12.18;;;9.60;;
10134;SDS011;5107;48.850;8.924;2023-06-22T06:01:45;12.60;;;9.93;;
10134;SDS011;5107;48.850;8.924;2023-06-22T06:04:14;12.02;;;9.60;;
10134;SDS011;5107;48.850;8.924;2023-06-22T06:06:40;11.20;;;9.40;;
10134;SDS011;5107;48.850;8.924;2023-06-22T06:09:05;13.80;;;9.60;;
10134;SDS011;5107;48.850;8.924;2023-06-22T06:11:32;13.57;;;10.52;;
10134;SDS011;5107;48.850;8.924;2023-06-22T06:13:58;13.50;;;10.13;;
10134;SDS011;5107;48.850;8.924;2023-06-22T06:16:23;11.85;;;9.25;;
10134;SDS011;5107;48.850;8.924;2023-06-22T06:18:48;12.75;;;10.13;;
10134;SDS011;5107;48.850;8.924;2023-06-22T06:21:15;11.45;;;9.65;;
10134;SDS011;5107;48.850;8.924;2023-06-22T06:23:41;13.02;;;9.45;;
10134;SDS011;5107;48.850;8.924;2023-06-22T06:26:07;12.63;;;9.60;;
10134;SDS011;5107;48.850;8.924;2023-06-22T06:28:32;12.70;;;10.00;;
10134;SDS011;5107;48.850;8.924;2023-06-22T06:30:58;14.98;;;10.38;;
10134;SDS011;5107;48.850;8.924;2023-06-22T06:33:24;14.02;;;9.75;;
10134;SDS011;5107;48.850;8.924;2023-06-22T06:35:49;11.30;;;9.50;;
10134;SDS011;5107;48.850;8.924;2023-06-22T06:38:15;11.68;;;9.05;;
10134;SDS011;5107;48.850;8.924;2023-06-22T06:40:40;11.07;;;9.68;;
10134;SDS011;5107;48.850;8.924;2023-06-22T06:43:06;9.90;;;8.57;;
10134;SDS011;5107;48.850;8.924;2023-06-22T06:45:31;11.95;;;9.23;;
10134;SDS011;5107;48.850;8.924;2023-06-22T06:47:58;10.00;;;8.80;;
10134;SDS011;5107;48.850;8.924;2023-06-22T06:50:23;15.55;;;9.38;;
10134;SDS011;5107;48.850;8.924;2023-06-22T06:52:48;10.00;;;9.00;;
10134;SDS011;5107;48.850;8.924;2023-06-22T06:55:15;11.10;;;8.88;;
10134;SDS011;5107;48.850;8.924;2023-06-22T06:57:41;11.80;;;7.95;;
10134;SDS011;5107;48.850;8.924;2023-06-22T07:00:07;11.15;;;8.23;;
10134;SDS011;5107;48.850;8.924;2023-06-22T07:02:37;8.90;;;7.28;;
10134;SDS011;5107;48.850;8.924;2023-06-22T07:05:04;13.82;;;7.97;;
10134;SDS011;5107;48.850;8.924;2023-06-22T07:07:30;11.60;;;7.60;;
10134;SDS011;5107;48.850;8.924;2023-06-22T07:09:55;11.25;;;8.02;;
10134;SDS011;5107;48.850;8.924;2023-06-22T07:12:21;8.98;;;7.97;;
10134;SDS011;5107;48.850;8.924;2023-06-22T07:14:46;11.00;;;8.32;;
10134;SDS011;5107;48.850;8.924;2023-06-22T07:17:11;12.38;;;8.25;;
10134;SDS011;5107;48.850;8.924;2023-06-22T07:19:37;11.32;;;7.65;;
10134;SDS011;5107;48.850;8.924;2023-06-22T07:22:03;11.18;;;7.40;;
10134;SDS011;5107;48.850;8.924;2023-06-22T07:24:29;7.97;;;6.90;;
10134;SDS011;5107;48.850;8.924;2023-06-22T07:26:54;9.57;;;7.30;;
10134;SDS011;5107;48.850;8.924;2023-06-22T07:29:20;11.25;;;7.32;;
10134;SDS011;5107;48.850;8.924;2023-06-22T07:31:46;11.80;;;7.53;;
10134;SDS011;5107;48.850;8.924;2023-06-22T07:34:12;9.95;;;7.55;;
10134;SDS011;5107;48.850;8.924;2023-06-22T07:36:38;11.85;;;7.60;;
10134;SDS011;5107;48.850;8.924;2023-06-22T07:39:03;9.77;;;7.60;;
10134;SDS011;5107;48.850;8.924;2023-06-22T07:41:29;11.80;;;8.60;;
10134;SDS011;5107;48.850;8.924;2023-06-22T07:43:55;8.05;;;7.22;;
10134;SDS011;5107;48.850;8.924;2023-06-22T07:46:20;9.88;;;6.75;;
10134;SDS011;5107;48.850;8.924;2023-06-22T07:48:45;7.72;;;6.78;;
10134;SDS011;5107;48.850;8.924;2023-06-22T07:51:11;10.43;;;7.10;;
10134;SDS011;5107;48.850;8.924;2023-06-22T07:53:43;10.85;;;7.53;;
10134;SDS011;5107;48.850;8.924;2023-06-22T07:56:12;8.57;;;6.70;;
10134;SDS011;5107;48.850;8.924;2023-06-22T07:58:37;9.75;;;7.28;;
10134;SDS011;5107;48.850;8.924;2023-06-22T08:01:03;8.73;;;7.70;;
10134;SDS011;5107;48.850;8.924;2023-06-22T08:03:29;10.50;;;7.38;;
10134;SDS011;5107;48.850;8.924;2023-06-22T08:05:54;9.13;;;6.88;;
10134;SDS011;5107;48.850;8.924;2023-06-22T08:08:20;8.80;;;7.20;;
10134;SDS011;5107;48.850;8.924;2023-06-22T08:10:45;10.50;;;6.75;;
10134;SDS011;5107;48.850;8.924;2023-06-22T08:13:11;8.60;;;6.68;;
10134;SDS011;5107;48.850;8.924;2023-06-22T08:15:36;11.60;;;7.78;;
10134;SDS011;5107;48.850;8.924;2023-06-22T08:18:01;12.50;;;6.55;;
10134;SDS011;5107;48.850;8.924;2023-06-22T08:20:27;8.07;;;7.13;;
10134;SDS011;5107;48.850;8.924;2023-06-22T08:22:53;12.90;;;6.88;;
10134;SDS011;5107;48.850;8.924;2023-06-22T08:25:20;7.55;;;6.85;;
10134;SDS011;5107;48.850;8.924;2023-06-22T08:27:46;11.23;;;6.75;;
10134;SDS011;5107;48.850;8.924;2023-06-22T08:30:13;7.13;;;6.40;;
10134;SDS011;5107;48.850;8.924;2023-06-22T08:32:39;9.35;;;6.45;;
10134;SDS011;5107;48.850;8.924;2023-06-22T08:35:05;7.38;;;6.45;;
10134;SDS011;5107;48.850;8.924;2023-06-22T08:37:33;8.90;;;6.32;;
10134;SDS011;5107;48.850;8.924;2023-06-22T08:40:00;11.18;;;7.20;;
10134;SDS011;5107;48.850;8.924;2023-06-22T08:42:30;7.38;;;6.28;;
10134;SDS011;5107;48.850;8.924;2023-06-22T08:44:56;9.45;;;6.07;;
10134;SDS011;5107;48.850;8.924;2023-06-22T08:47:22;7.25;;;5.35;;
10134;SDS011;5107;48.850;8.924;2023-06-22T08:49:48;10.30;;;6.25;;
10134;SDS011;5107;48.850;8.924;2023-06-22T08:52:15;9.35;;;5.90;;
10134;SDS011;5107;48.850;8.924;2023-06-22T08:54:40;10.93;;;6.07;;
10134;SDS011;5107;48.850;8.924;2023-06-22T08:57:05;12.68;;;6.55;;
10134;SDS011;5107;48.850;8.924;2023-06-22T08:59:31;8.70;;;5.80;;
10134;SDS011;5107;48.850;8.924;2023-06-22T09:01:57;10.35;;;5.75;;
10134;SDS011;5107;48.850;8.924;2023-06-22T09:04:22;11.18;;;6.15;;
10134;SDS011;5107;48.850;8.924;2023-06-22T09:06:48;8.77;;;6.03;;
10134;SDS011;5107;48.850;8.924;2023-06-22T09:09:15;10.05;;;5.82;;
10134;SDS011;5107;48.850;8.924;2023-06-22T09:11:41;10.50;;;6.10;;
10134;SDS011;5107;48.850;8.924;2023-06-22T09:14:06;10.73;;;5.68;;
10134;SDS011;5107;48.850;8.924;2023-06-22T09:16:32;8.88;;;6.10;;
10134;SDS011;5107;48.850;8.924;2023-06-22T09:18:57;9.50;;;6.03;;
10134;SDS011;5107;48.850;8.924;2023-06-22T09:21:23;9.90;;;6.38;;
10134;SDS011;5107;48.850;8.924;2023-06-22T09:23:48;9.73;;;6.40;;
10134;SDS011;5107;48.850;8.924;2023-06-22T09:26:16;10.63;;;5.97;;
10134;SDS011;5107;48.850;8.924;2023-06-22T09:28:44;8.65;;;5.97;;
10134;SDS011;5107;48.850;8.924;2023-06-22T09:31:10;10.73;;;5.70;;
10134;SDS011;5107;48.850;8.924;2023-06-22T09:33:36;10.23;;;6.05;;
10134;SDS011;5107;48.850;8.924;2023-06-22T09:36:03;8.52;;;5.95;;
10134;SDS011;5107;48.850;8.924;2023-06-22T09:38:32;10.75;;;6.75;;
10134;SDS011;5107;48.850;8.924;2023-06-22T09:40:59;9.43;;;6.47;;
10134;SDS011;5107;48.850;8.924;2023-06-22T09:43:25;10.30;;;6.28;;
10134;SDS011;5107;48.850;8.924;2023-06-22T09:45:50;10.25;;;5.85;;
10134;SDS011;5107;48.850;8.924;2023-06-22T09:48:16;12.05;;;6.05;;
10134;SDS011;5107;48.850;8.924;2023-06-22T09:50:41;10.02;;;6.53;;
10134;SDS011;5107;48.850;8.924;2023-06-22T09:53:06;11.02;;;6.72;;
10134;SDS011;5107;48.850;8.924;2023-06-22T09:55:32;7.50;;;5.90;;
10134;SDS011;5107;48.850;8.924;2023-06-22T09:57:57;10.95;;;6.28;;
10134;SDS011;5107;48.850;8.924;2023-06-22T10:00:22;11.63;;;6.47;;
10134;SDS011;5107;48.850;8.924;2023-06-22T10:02:47;7.82;;;6.18;;
10134;SDS011;5107;48.850;8.924;2023-06-22T10:05:13;11.82;;;6.45;;
10134;SDS011;5107;48.850;8.924;2023-06-22T10:07:38;9.55;;;5.75;;
10134;SDS011;5107;48.850;8.924;2023-06-22T10:10:07;9.38;;;6.00;;
10134;SDS011;5107;48.850;8.924;2023-06-22T10:12:33;14.20;;;6.13;;
10134;SDS011;5107;48.850;8.924;2023-06-22T10:14:58;11.60;;;6.10;;
10134;SDS011;5107;48.850;8.924;2023-06-22T10:17:24;10.50;;;6.20;;
10134;SDS011;5107;48.850;8.924;2023-06-22T10:19:49;8.27;;;6.07;;
10134;SDS011;5107;48.850;8.924;2023-06-22T10:22:14;11.85;;;6.13;;
10134;SDS011;5107;48.850;8.924;2023-06-22T10:24:40;9.60;;;6.25;;
10134;SDS011;5107;48.850;8.924;2023-06-22T10:27:09;10.95;;;6.20;;
10134;SDS011;5107;48.850;8.924;2023-06-22T10:29:38;9.23;;;6.28;;
10134;SDS011;5107;48.850;8.924;2023-06-22T10:32:04;11.18;;;6.13;;
10134;SDS011;5107;48.850;8.924;2023-06-22T10:34:30;10.70;;;6.10;;
10134;SDS011;5107;48.850;8.924;2023-06-22T10:36:55;13.65;;;6.85;;
10134;SDS011;5107;48.850;8.924;2023-06-22T10:39:20;9.52;;;6.20;;
10134;SDS011;5107;48.850;8.924;2023-06-22T10:41:46;12.18;;;6.45;;
10134;SDS011;5107;48.850;8.924;2023-06-22T10:44:11;11.13;;;6.10;;
10134;SDS011;5107;48.850;8.924;2023-06-22T10:46:38;7.50;;;5.95;;
10134;SDS011;5107;48.850;8.924;2023-06-22T10:49:03;10.88;;;6.30;;
10134;SDS011;5107;48.850;8.924;2023-06-22T10:51:29;15.07;;;6.47;;
10134;SDS011;5107;48.850;8.924;2023-06-22T10:53:56;13.80;;;6.75;;
10134;SDS011;5107;48.850;8.924;2023-06-22T10:56:21;12.82;;;6.40;;
10134;SDS011;5107;48.850;8.924;2023-06-22T10:58:46;11.65;;;6.70;;
10134;SDS011;5107;48.850;8.924;2023-06-22T11:01:12;8.88;;;6.47;;
10134;SDS011;5107;48.850;8.924;2023-06-22T11:03:37;10.18;;;6.10;;
10134;SDS011;5107;48.850;8.924;2023-06-22T11:06:02;13.48;;;6.15;;
10134;SDS011;5107;48.850;8.924;2023-06-22T11:08:28;12.13;;;7.43;;
10134;SDS011;5107;48.850;8.924;2023-06-22T11:10:53;10.50;;;6.40;;
10134;SDS011;5107;48.850;8.924;2023-06-22T11:13:18;10.52;;;6.03;;
10134;SDS011;5107;48.850;8.924;2023-06-22T11:15:44;10.57;;;6.50;;
10134;SDS011;5107;48.850;8.924;2023-06-22T11:18:09;11.05;;;6.80;;
10134;SDS011;5107;48.850;8.924;2023-06-22T11:20:34;11.73;;;6.68;;
10134;SDS011;5107;48.850;8.924;2023-06-22T11:23:03;10.38;;;6.70;;
10134;SDS011;5107;48.850;8.924;2023-06-22T11:25:32;11.10;;;6.78;;
10134;SDS011;5107;48.850;8.924;2023-06-22T11:28:01;11.20;;;6.88;;
10134;SDS011;5107;48.850;8.924;2023-06-22T11:30:29;11.05;;;6.80;;
10134;SDS011;5107;48.850;8.924;2023-06-22T11:32:58;13.02;;;6.82;;
10134;SDS011;5107;48.850;8.924;2023-06-22T11:35:24;12.65;;;7.30;;
10134;SDS011;5107;48.850;8.924;2023-06-22T11:37:49;8.30;;;6.70;;
10134;SDS011;5107;48.850;8.924;2023-06-22T11:40:14;10.15;;;6.80;;
10134;SDS011;5107;48.850;8.924;2023-06-22T11:42:40;13.25;;;7.15;;
10134;SDS011;5107;48.850;8.924;2023-06-22T11:45:06;10.27;;;6.38;;
10134;SDS011;5107;48.850;8.924;2023-06-22T11:47:31;10.60;;;6.82;;
10134;SDS011;5107;48.850;8.924;2023-06-22T11:49:57;9.40;;;6.72;;
10134;SDS011;5107;48.850;8.924;2023-06-22T11:52:22;11.40;;;6.93;;
10134;SDS011;5107;48.850;8.924;2023-06-22T11:54:47;10.88;;;6.72;;
10134;SDS011;5107;48.850;8.924;2023-06-22T11:57:13;9.23;;;6.60;;
10134;SDS011;5107;48.850;8.924;2023-06-22T11:59:38;10.43;;;6.57;;
10134;SDS011;5107;48.850;8.924;2023-06-22T12:02:03;10.48;;;6.38;;
10134;SDS011;5107;48.850;8.924;2023-06-22T12:04:30;10.90;;;7.18;;
10134;SDS011;5107;48.850;8.924;2023-06-22T12:06:56;11.82;;;6.88;;
10134;SDS011;5107;48.850;8.924;2023-06-22T12:09:21;9.25;;;6.60;;
10134;SDS011;5107;48.850;8.924;2023-06-22T12:11:46;9.85;;;7.15;;
10134;SDS011;5107;48.850;8.924;2023-06-22T12:14:12;11.73;;;7.32;;
10134;SDS011;5107;48.850;8.924;2023-06-22T12:16:37;10.18;;;7.40;;
10134;SDS011;5107;48.850;8.924;2023-06-22T12:19:03;9.40;;;6.63;;
10134;SDS011;5107;48.850;8.924;2023-06-22T12:21:28;9.40;;;6.28;;
10134;SDS011;5107;48.850;8.924;2023-06-22T12:23:54;10.32;;;6.75;;
10134;SDS011;5107;48.850;8.924;2023-06-22T12:26:19;11.43;;;7.40;;
10134;SDS011;5107;48.850;8.924;2023-06-22T12:28:44;13.30;;;7.28;;
10134;SDS011;5107;48.850;8.924;2023-06-22T12:31:10;9.85;;;6.93;;
10134;SDS011;5107;48.850;8.924;2023-06-22T12:33:35;9.90;;;6.68;;
10134;SDS011;5107;48.850;8.924;2023-06-22T12:36:00;12.05;;;6.88;;
10134;SDS011;5107;48.850;8.924;2023-06-22T12:38:26;12.55;;;6.72;;
10134;SDS011;5107;48.850;8.924;2023-06-22T12:40:51;11.75;;;6.43;;
10134;SDS011;5107;48.850;8.924;2023-06-22T12:43:17;9.70;;;6.68;;
10134;SDS011;5107;48.850;8.924;2023-06-22T12:45:42;12.48;;;7.10;;
10134;SDS011;5107;48.850;8.924;2023-06-22T12:48:08;10.77;;;6.57;;
10134;SDS011;5107;48.850;8.924;2023-06-22T12:50:33;12.52;;;6.82;;
10134;SDS011;5107;48.850;8.924;2023-06-22T12:52:59;13.57;;;7.13;;
10134;SDS011;5107;48.850;8.924;2023-06-22T12:55:27;9.25;;;6.70;;
10134;SDS011;5107;48.850;8.924;2023-06-22T12:57:52;12.77;;;6.72;;
10134;SDS011;5107;48.850;8.924;2023-06-22T13:00:17;11.35;;;6.35;;
10134;SDS011;5107;48.850;8.924;2023-06-22T13:02:43;12.52;;;6.82;;
10134;SDS011;5107;48.850;8.924;2023-06-22T13:05:08;10.10;;;6.65;;
10134;SDS011;5107;48.850;8.924;2023-06-22T13:07:34;11.77;;;6.72;;
10134;SDS011;5107;48.850;8.924;2023-06-22T13:09:59;11.57;;;7.45;;
10134;SDS011;5107;48.850;8.924;2023-06-22T13:12:24;15.10;;;7.63;;
10134;SDS011;5107;48.850;8.924;2023-06-22T13:14:50;12.02;;;6.75;;
10134;SDS011;5107;48.850;8.924;2023-06-22T13:17:15;13.70;;;7.38;;
10134;SDS011;5107;48.850;8.924;2023-06-22T13:19:41;16.40;;;7.57;;
10134;SDS011;5107;48.850;8.924;2023-06-22T13:24:54;13.32;;;6.85;;
10134;SDS011;5107;48.850;8.924;2023-06-22T13:27:19;11.98;;;7.50;;
10134;SDS011;5107;48.850;8.924;2023-06-22T13:29:45;12.57;;;7.30;;
10134;SDS011;5107;48.850;8.924;2023-06-22T13:32:10;9.75;;;6.68;;
10134;SDS011;5107;48.850;8.924;2023-06-22T13:34:35;14.20;;;6.70;;
10134;SDS011;5107;48.850;8.924;2023-06-22T13:37:01;12.70;;;6.63;;
10134;SDS011;5107;48.850;8.924;2023-06-22T13:39:26;12.20;;;7.03;;
10134;SDS011;5107;48.850;8.924;2023-06-22T13:41:51;13.13;;;6.82;;
10134;SDS011;5107;48.850;8.924;2023-06-22T13:44:17;14.95;;;7.03;;
10134;SDS011;5107;48.850;8.924;2023-06-22T13:46:42;12.45;;;6.97;;
10134;SDS011;5107;48.850;8.924;2023-06-22T13:49:07;11.77;;;7.30;;
10134;SDS011;5107;48.850;8.924;2023-06-22T13:51:33;15.90;;;7.47;;
10134;SDS011;5107;48.850;8.924;2023-06-22T13:53:58;13.00;;;6.75;;
10134;SDS011;5107;48.850;8.924;2023-06-22T13:56:23;13.90;;;6.55;;
10134;SDS011;5107;48.850;8.924;2023-06-22T13:58:49;11.90;;;6.18;;
10134;SDS011;5107;48.850;8.924;2023-06-22T14:01:14;12.38;;;6.80;;
10134;SDS011;5107;48.850;8.924;2023-06-22T14:03:39;10.73;;;6.93;;
10134;SDS011;5107;48.850;8.924;2023-06-22T14:06:05;13.70;;;6.72;;
10134;SDS011;5107;48.850;8.924;2023-06-22T14:08:31;10.18;;;6.88;;
10134;SDS011;5107;48.850;8.924;2023-06-22T14:10:56;11.77;;;6.60;;
10134;SDS011;5107;48.850;8.924;2023-06-22T14:13:22;11.30;;;6.43;;
10134;SDS011;5107;48.850;8.924;2023-06-22T14:15:47;14.80;;;7.38;;
10134;SDS011;5107;48.850;8.924;2023-06-22T14:18:13;14.15;;;5.28;;
10134;SDS011;5107;48.850;8.924;2023-06-22T14:20:39;10.27;;;4.65;;
10134;SDS011;5107;48.850;8.924;2023-06-22T14:23:05;13.43;;;4.55;;
10134;SDS011;5107;48.850;8.924;2023-06-22T14:25:30;11.25;;;3.53;;
10134;SDS011;5107;48.850;8.924;2023-06-22T14:27:56;8.32;;;3.20;;
10134;SDS011;5107;48.850;8.924;2023-06-22T14:30:21;10.80;;;4.25;;
10134;SDS011;5107;48.850;8.924;2023-06-22T14:32:46;8.85;;;4.18;;
10134;SDS011;5107;48.850;8.924;2023-06-22T14:35:12;14.88;;;4.15;;
10134;SDS011;5107;48.850;8.924;2023-06-22T14:37:37;9.88;;;3.75;;
10134;SDS011;5107;48.850;8.924;2023-06-22T14:40:03;14.02;;;4.22;;
10134;SDS011;5107;48.850;8.924;2023-06-22T14:42:28;15.30;;;4.22;;
10134;SDS011;5107;48.850;8.924;2023-06-22T14:44:55;10.68;;;4.07;;
10134;SDS011;5107;48.850;8.924;2023-06-22T14:47:20;14.32;;;4.65;;
10134;SDS011;5107;48.850;8.924;2023-06-22T14:49:46;10.25;;;4.15;;